createdAt,value
2023-02-26T00:03:03.528Z,-0.20
2023-02-26T00:08:06.855Z,-0.20
2023-02-26T00:13:12.561Z,-0.20
2023-02-26T00:18:17.655Z,-0.20
2023-02-26T00:23:21.461Z,-0.10
2023-02-26T00:28:26.641Z,-0.20
2023-02-26T00:33:31.029Z,-0.20
2023-02-26T00:38:36.499Z,-0.20
2023-02-26T00:43:41.434Z,-0.20
2023-02-26T00:48:54.146Z,-0.20
2023-02-26T00:54:04.893Z,-0.20
2023-02-26T00:59:09.661Z,-0.20
2023-02-26T01:04:14.794Z,-0.20
2023-02-26T01:09:25.785Z,-0.20
2023-02-26T01:14:32.713Z,-0.20
2023-02-26T01:19:43.610Z,-0.20
2023-02-26T01:24:49.807Z,-0.20
2023-02-26T01:29:55.789Z,-0.20
2023-02-26T01:35:06.042Z,-0.20
2023-02-26T01:40:36.851Z,-0.30
2023-02-26T01:45:58.891Z,-0.30
2023-02-26T01:51:02.166Z,-0.30
2023-02-26T01:56:12.926Z,-0.30
2023-02-26T02:01:17.564Z,-0.30
2023-02-26T02:06:24.163Z,-0.30
2023-02-26T02:11:27.962Z,-0.30
2023-02-26T02:16:42.401Z,-0.30
2023-02-26T02:22:16.158Z,-0.30
2023-02-26T02:27:30.346Z,-0.30
2023-02-26T02:32:39.996Z,-0.30
2023-02-26T02:37:49.845Z,-0.30
2023-02-26T02:42:59.160Z,-0.30
2023-02-26T02:48:11.035Z,-0.30
2023-02-26T02:53:19.622Z,-0.30
2023-02-26T02:58:26.243Z,-0.30
2023-02-26T03:03:36.536Z,-0.30
2023-02-26T03:08:42.578Z,-0.40
2023-02-26T03:13:47.497Z,-0.50
2023-02-26T03:19:06.055Z,-0.40
2023-02-26T03:24:17.959Z,-0.50
2023-02-26T03:29:29.214Z,-0.50
2023-02-26T03:34:39.036Z,-0.50
2023-02-26T03:39:45.026Z,-0.60
2023-02-26T03:44:53.430Z,-0.70
2023-02-26T03:50:01.404Z,-0.70
2023-02-26T03:55:09.757Z,-0.70
2023-02-26T04:00:42.753Z,-0.60
2023-02-26T04:05:51.740Z,-0.60
2023-02-26T04:10:59.657Z,-0.70
2023-02-26T04:16:03.384Z,-0.70
2023-02-26T04:21:08.934Z,-0.70
2023-02-26T04:26:13.386Z,-0.70
2023-02-26T04:31:18.160Z,-0.70
2023-02-26T04:36:23.660Z,-0.70
2023-02-26T04:41:27.785Z,-0.60
2023-02-26T04:46:31.898Z,-0.60
2023-02-26T04:51:37.161Z,-0.60
2023-02-26T04:56:40.932Z,-0.60
2023-02-26T05:01:44.303Z,-0.50
2023-02-26T05:06:49.459Z,-0.50
2023-02-26T05:11:53.148Z,-0.50
2023-02-26T05:16:56.858Z,-0.50
2023-02-26T05:22:02.091Z,-0.60
2023-02-26T05:27:07.112Z,-0.60
2023-02-26T05:32:13.622Z,-0.60
2023-02-26T05:37:19.117Z,-0.70
2023-02-26T05:42:22.782Z,-0.70
2023-02-26T05:47:26.099Z,-0.60
2023-02-26T05:52:31.145Z,-0.60
2023-02-26T05:57:34.528Z,-0.60
2023-02-26T06:02:38.286Z,-0.50
2023-02-26T06:07:42.938Z,-0.50
2023-02-26T06:12:46.600Z,-0.40
2023-02-26T06:17:50.205Z,-0.40
2023-02-26T06:22:55.274Z,-0.40
2023-02-26T06:27:58.966Z,-0.30
2023-02-26T06:33:02.284Z,-0.30
2023-02-26T06:38:07.177Z,-0.30
2023-02-26T06:43:10.814Z,-0.20
2023-02-26T06:48:14.776Z,-0.20
2023-02-26T06:53:19.929Z,-0.20
2023-02-26T06:58:24.928Z,-0.10
2023-02-26T07:03:28.569Z,-0.10
2023-02-26T07:08:33.238Z,0.00
2023-02-26T07:13:37.328Z,0.00
2023-02-26T07:18:40.917Z,0.10
2023-02-26T07:23:45.805Z,0.10
2023-02-26T07:28:49.652Z,0.20
2023-02-26T07:33:53.607Z,0.30
2023-02-26T07:38:58.852Z,0.30
2023-02-26T07:44:02.651Z,0.30
2023-02-26T07:49:06.269Z,0.40
2023-02-26T07:54:11.023Z,0.50
2023-02-26T07:59:14.770Z,0.50
2023-02-26T08:04:18.423Z,0.60
2023-02-26T08:09:23.613Z,0.60
2023-02-26T08:14:27.183Z,0.70
2023-02-26T08:19:30.473Z,0.80
2023-02-26T08:24:35.274Z,0.90
2023-02-26T08:29:38.781Z,1.00
2023-02-26T08:34:42.166Z,1.00
2023-02-26T08:39:47.150Z,1.00
2023-02-26T08:44:51.046Z,1.70
2023-02-26T08:49:54.665Z,1.30
2023-02-26T08:54:59.840Z,1.30
2023-02-26T09:00:05.579Z,1.30
2023-02-26T09:05:10.492Z,1.30
2023-02-26T09:10:16.256Z,1.40
2023-02-26T09:15:20.113Z,1.50
2023-02-26T09:20:24.612Z,1.60
2023-02-26T09:25:29.272Z,1.70
2023-02-26T09:30:32.862Z,1.70
2023-02-26T09:35:36.542Z,1.90
2023-02-26T09:40:47.778Z,2.10
2023-02-26T09:45:54.179Z,2.10
2023-02-26T09:50:59.865Z,2.10
2023-02-26T09:56:08.146Z,2.20
2023-02-26T10:01:16.113Z,2.20
2023-02-26T10:06:26.572Z,2.30
2023-02-26T10:11:41.031Z,2.30
2023-02-26T10:16:48.987Z,2.10
2023-02-26T10:21:55.672Z,2.20
2023-02-26T10:27:06.890Z,2.20
2023-02-26T10:32:22.915Z,2.20
2023-02-26T10:37:40.114Z,2.30
2023-02-26T10:42:49.319Z,2.30
2023-02-26T10:48:01.552Z,2.40
2023-02-26T10:53:05.883Z,2.40
2023-02-26T10:58:15.220Z,2.80
2023-02-26T11:03:21.036Z,3.10
2023-02-26T11:08:27.588Z,3.40
2023-02-26T11:13:34.248Z,3.80
2023-02-26T11:18:41.341Z,4.00
2023-02-26T11:23:47.301Z,4.00
2023-02-26T11:28:55.041Z,4.10
2023-02-26T11:34:04.976Z,4.30
2023-02-26T11:39:16.000Z,4.40
2023-02-26T11:44:26.370Z,4.10
2023-02-26T11:49:30.605Z,4.00
2023-02-26T11:54:38.437Z,4.00
2023-02-26T11:59:43.099Z,4.00
2023-02-26T12:04:49.873Z,4.10
2023-02-26T12:09:53.120Z,4.30
2023-02-26T12:15:09.930Z,4.60
2023-02-26T12:20:22.512Z,4.60
2023-02-26T12:25:42.862Z,4.70
2023-02-26T12:31:16.510Z,4.70
2023-02-26T12:36:46.503Z,4.20
2023-02-26T12:42:02.312Z,3.80
2023-02-26T12:47:23.511Z,3.90
2023-02-26T12:52:50.231Z,4.10
2023-02-26T12:58:21.773Z,4.20
2023-02-26T13:03:58.662Z,4.50
2023-02-26T13:09:11.213Z,3.80
2023-02-26T13:14:29.974Z,3.30
2023-02-26T13:19:44.025Z,3.40
2023-02-26T13:24:53.866Z,3.50
2023-02-26T13:30:19.811Z,3.80
2023-02-26T13:35:32.681Z,4.10
2023-02-26T13:40:52.636Z,4.80
2023-02-26T13:46:06.083Z,5.20
2023-02-26T13:51:24.676Z,5.00
2023-02-26T13:56:54.470Z,4.70
2023-02-26T14:02:03.197Z,4.60
2023-02-26T14:07:14.295Z,4.50
2023-02-26T14:12:40.512Z,4.10
2023-02-26T14:17:51.209Z,3.80
2023-02-26T14:23:13.927Z,3.80
2023-02-26T14:28:50.304Z,4.10
2023-02-26T14:34:15.433Z,4.50
2023-02-26T14:39:29.034Z,4.50
2023-02-26T14:44:36.286Z,4.40
2023-02-26T14:49:42.886Z,4.20
2023-02-26T14:55:02.627Z,4.10
2023-02-26T15:00:19.449Z,3.90
2023-02-26T15:05:36.587Z,3.80
2023-02-26T15:10:54.360Z,3.90
2023-02-26T15:16:01.823Z,3.90
2023-02-26T15:21:13.423Z,3.60
2023-02-26T15:26:23.231Z,3.30
2023-02-26T15:31:32.572Z,3.10
2023-02-26T15:36:36.000Z,3.10
2023-02-26T15:41:41.006Z,3.20
2023-02-26T15:46:47.160Z,3.20
2023-02-26T15:51:52.783Z,3.40
2023-02-26T15:56:58.002Z,3.50
2023-02-26T16:02:04.110Z,3.60
2023-02-26T16:07:07.392Z,3.60
2023-02-26T16:12:16.444Z,3.50
2023-02-26T16:17:27.013Z,3.30
2023-02-26T16:22:34.752Z,3.20
2023-02-26T16:27:40.795Z,3.00
2023-02-26T16:32:47.758Z,2.80
2023-02-26T16:37:55.194Z,2.70
2023-02-26T16:43:05.136Z,2.50
2023-02-26T16:48:15.399Z,2.30
2023-02-26T16:53:21.274Z,2.10
2023-02-26T16:58:26.534Z,1.90
2023-02-26T17:03:31.713Z,1.80
2023-02-26T17:08:36.579Z,1.70
2023-02-26T17:13:43.960Z,1.50
2023-02-26T17:18:47.236Z,1.40
2023-02-26T17:23:50.944Z,1.30
2023-02-26T17:28:55.610Z,1.30
2023-02-26T17:33:58.892Z,1.10
2023-02-26T17:39:02.131Z,1.00
2023-02-26T17:44:06.943Z,0.90
2023-02-26T17:49:12.023Z,0.90
2023-02-26T17:54:15.409Z,0.90
2023-02-26T17:59:20.011Z,0.90
2023-02-26T18:04:23.742Z,0.90
2023-02-26T18:09:27.109Z,1.00
2023-02-26T18:14:31.734Z,0.90
2023-02-26T18:19:34.978Z,0.90
2023-02-26T18:24:40.140Z,0.80
2023-02-26T18:29:45.178Z,0.80
2023-02-26T18:34:50.104Z,0.70
2023-02-26T18:39:53.644Z,0.70
2023-02-26T18:44:58.295Z,0.60
2023-02-26T18:50:01.609Z,0.60
2023-02-26T18:55:06.217Z,0.50
2023-02-26T19:00:14.316Z,0.50
2023-02-26T19:05:23.175Z,0.50
2023-02-26T19:10:29.455Z,0.40
2023-02-26T19:15:34.642Z,0.40
2023-02-26T19:20:37.940Z,0.20
2023-02-26T19:25:42.775Z,0.10
2023-02-26T19:30:48.004Z,0.00
2023-02-26T19:35:51.320Z,-0.10
2023-02-26T19:40:54.557Z,-0.20
2023-02-26T19:45:59.272Z,-0.20
2023-02-26T19:51:03.208Z,-0.30
2023-02-26T19:56:07.542Z,-0.30
2023-02-26T20:01:12.319Z,-0.40
2023-02-26T20:06:15.633Z,-0.40
2023-02-26T20:11:18.922Z,-0.50
2023-02-26T20:16:23.731Z,-0.40
2023-02-26T20:21:27.753Z,-0.50
2023-02-26T20:26:32.712Z,-0.40
2023-02-26T20:31:37.506Z,-0.40
2023-02-26T20:36:41.755Z,-0.40
2023-02-26T20:41:45.009Z,-0.30
2023-02-26T20:46:49.720Z,-0.30
2023-02-26T20:51:53.392Z,-0.30
2023-02-26T20:56:57.086Z,-0.40
2023-02-26T21:02:02.219Z,-0.40
2023-02-26T21:07:22.084Z,-0.50
2023-02-26T21:12:26.100Z,-0.50
2023-02-26T21:17:31.876Z,-0.60
2023-02-26T21:22:36.613Z,-0.60
2023-02-26T21:27:40.275Z,-0.70
2023-02-26T21:32:45.152Z,-0.80
2023-02-26T21:37:48.759Z,-0.90
2023-02-26T21:42:51.985Z,-1.00
2023-02-26T21:47:56.719Z,-1.00
2023-02-26T21:52:59.997Z,-1.00
2023-02-26T21:58:03.557Z,-1.10
2023-02-26T22:03:08.160Z,-1.10
2023-02-26T22:08:11.869Z,-1.10
2023-02-26T22:13:18.012Z,-1.20
2023-02-26T22:18:22.724Z,-1.10
2023-02-26T22:23:26.134Z,-1.20
2023-02-26T22:28:29.609Z,-1.30
2023-02-26T22:33:34.185Z,-1.20
2023-02-26T22:38:37.401Z,-1.20
2023-02-26T22:43:40.654Z,-1.20
2023-02-26T22:48:45.301Z,-1.30
2023-02-26T22:53:48.987Z,-1.20
2023-02-26T22:58:52.663Z,-1.30
2023-02-26T23:03:57.370Z,-1.40
2023-02-26T23:09:00.864Z,-1.40
2023-02-26T23:14:04.517Z,-1.40
2023-02-26T23:19:09.291Z,-1.40
2023-02-26T23:24:12.922Z,-1.50
2023-02-26T23:29:16.212Z,-1.50
2023-02-26T23:34:21.532Z,-1.50
2023-02-26T23:39:26.429Z,-1.60
2023-02-26T23:44:29.737Z,-1.50
2023-02-26T23:49:34.863Z,-1.60
2023-02-26T23:54:39.799Z,-1.60
2023-02-26T23:59:43.122Z,-1.70
